Time;durP1;ratioP1;P1;durP2;ratioP2;P2;SDS_P1;SDS_P2;PMS_P1;PMS_P2;Temp;Humidity;BMP_temperature;BMP_pressure;BME280_temperature;BME280_humidity;BME280_pressure;Samples;Min_cycle;Max_cycle;Signal;HPM_P1;HPM_P2
2021/01/20 11:02:08;;;;;;;4.50;3.80;;;8.20;98.30;;;;;;5149131;23;20364;-80
2021/01/20 11:11:04;;;;;;;6.80;5.30;;;8.40;98.30;;;;;;5116496;23;20453;-80
2021/01/20 11:13:10;;;;;;;6.47;4.27;;;8.40;98.30;;;;;;5124560;23;20525;-79
2021/01/20 11:15:16;;;;;;;6.03;4.80;;;8.50;98.30;;;;;;5124365;23;20887;-79
2021/01/20 11:17:18;;;;;;;4.63;3.90;;;8.50;98.30;;;;;;5124624;23;20445;-79
2021/01/20 11:19:20;;;;;;;5.50;4.40;;;8.50;98.30;;;;;;5124635;23;20488;-79
2021/01/20 11:21:22;;;;;;;5.63;4.47;;;8.50;98.30;;;;;;5125203;23;20532;-79
2021/01/20 11:23:26;;;;;;;7.80;4.83;;;8.50;98.30;;;;;;5124865;23;20456;-79
2021/01/20 11:25:29;;;;;;;5.87;4.27;;;8.60;98.30;;;;;;5124682;23;20520;-79
2021/01/20 11:27:32;;;;;;;4.70;4.20;;;8.60;98.30;;;;;;5124483;23;20453;-79
2021/01/20 11:29:35;;;;;;;4.30;3.90;;;8.60;98.30;;;;;;5116579;23;20465;-78
2021/01/20 11:31:37;;;;;;;5.20;4.60;;;8.60;98.30;;;;;;5124673;23;20451;-79
2021/01/20 11:33:41;;;;;;;5.40;4.30;;;8.60;98.30;;;;;;5124769;23;20452;-79
2021/01/20 11:35:43;;;;;;;6.77;4.87;;;8.60;98.30;;;;;;5124970;23;20483;-79
2021/01/20 11:37:46;;;;;;;5.10;4.40;;;8.70;98.30;;;;;;5124353;23;20454;-78
2021/01/20 11:39:50;;;;;;;6.40;3.93;;;8.70;98.30;;;;;;5124633;23;20491;-79
2021/01/20 11:41:53;;;;;;;5.23;4.10;;;8.70;98.30;;;;;;5124627;23;20450;-79
2021/01/20 11:43:56;;;;;;;5.57;4.70;;;8.80;98.30;;;;;;5124740;23;20487;-81
2021/01/20 11:45:58;;;;;;;6.13;4.57;;;8.80;98.30;;;;;;5125548;23;20469;-81
2021/01/20 11:48:01;;;;;;;5.70;4.70;;;8.80;98.30;;;;;;5125225;23;20773;-79
2021/01/20 11:50:05;;;;;;;4.67;3.77;;;8.80;98.30;;;;;;5124809;23;20445;-78
2021/01/20 11:52:07;;;;;;;5.80;4.30;;;8.90;98.30;;;;;;5124673;23;20438;-79
2021/01/20 11:54:09;;;;;;;4.90;4.00;;;8.90;98.30;;;;;;5125396;23;20474;-80
2021/01/20 11:56:12;;;;;;;4.90;4.40;;;8.90;98.30;;;;;;5124553;23;20480;-80
2021/01/20 11:58:14;;;;;;;5.50;4.53;;;8.90;98.30;;;;;;5124920;23;21057;-79
2021/01/20 12:00:18;;;;;;;5.10;4.37;;;8.90;98.30;;;;;;5116246;23;20454;-79
2021/01/20 12:02:20;;;;;;;13.50;4.70;;;9.00;98.30;;;;;;5124378;23;20481;-79
2021/01/20 12:04:22;;;;;;;4.37;3.97;;;9.00;98.30;;;;;;5126429;23;20463;-81
2021/01/20 12:06:25;;;;;;;4.47;3.27;;;9.00;98.30;;;;;;5125390;23;20460;-81
2021/01/20 12:08:27;;;;;;;5.80;4.20;;;9.00;98.30;;;;;;5125503;23;20508;-82
2021/01/20 12:10:29;;;;;;;6.53;4.13;;;9.10;98.30;;;;;;5125063;23;20452;-82
2021/01/20 12:12:35;;;;;;;6.00;3.80;;;9.10;98.30;;;;;;5125659;23;20442;-80
2021/01/20 12:14:39;;;;;;;7.40;4.00;;;9.10;98.30;;;;;;5126092;23;20477;-80
2021/01/20 12:16:45;;;;;;;6.30;4.20;;;9.10;98.30;;;;;;5125670;23;20524;-80
2021/01/20 12:18:47;;;;;;;4.60;4.03;;;9.10;98.30;;;;;;5125347;23;20457;-81
2021/01/20 12:20:50;;;;;;;6.53;4.37;;;9.20;98.30;;;;;;5125396;23;20450;-80
2021/01/20 12:22:52;;;;;;;5.43;4.50;;;9.20;98.30;;;;;;5126002;23;20869;-80
2021/01/20 12:24:54;;;;;;;4.73;3.73;;;9.20;98.30;;;;;;5125680;23;20521;-80
2021/01/20 12:26:56;;;;;;;5.90;4.40;;;9.20;98.30;;;;;;5125435;23;20984;-82
2021/01/20 12:28:58;;;;;;;4.50;3.90;;;9.20;98.30;;;;;;5125665;23;20875;-82
2021/01/20 12:31:00;;;;;;;4.10;3.70;;;9.20;98.30;;;;;;5125916;23;20972;-82
2021/01/20 12:33:03;;;;;;;4.70;3.80;;;9.30;98.30;;;;;;5124892;23;20454;-82
2021/01/20 12:35:06;;;;;;;5.23;4.20;;;9.20;98.30;;;;;;5124206;23;20453;-81
2021/01/20 12:37:08;;;;;;;4.03;3.67;;;9.20;98.30;;;;;;5123993;23;20504;-81
2021/01/20 12:39:10;;;;;;;4.07;3.67;;;9.20;98.30;;;;;;5123959;23;20499;-81
2021/01/20 12:41:12;;;;;;;5.07;3.97;;;9.30;98.30;;;;;;5124611;23;20458;-81
2021/01/20 12:43:15;;;;;;;6.27;4.30;;;9.30;98.30;;;;;;5124513;23;20544;-79
2021/01/20 12:45:17;;;;;;;5.60;4.17;;;9.30;98.30;;;;;;5124329;23;20488;-79
2021/01/20 12:47:19;;;;;;;5.93;3.80;;;9.30;98.30;;;;;;5123738;23;20560;-78
2021/01/20 12:49:23;;;;;;;5.60;4.17;;;9.30;98.30;;;;;;5123876;23;20488;-80
2021/01/20 12:51:25;;;;;;;5.23;3.80;;;9.30;98.30;;;;;;5123834;23;21031;-80
2021/01/20 12:53:27;;;;;;;4.50;3.60;;;9.40;98.30;;;;;;5123578;23;20509;-80
2021/01/20 12:55:29;;;;;;;4.53;4.13;;;9.40;98.30;;;;;;5124520;23;20446;-79
2021/01/20 12:57:31;;;;;;;3.90;3.50;;;9.40;98.30;;;;;;5124024;23;20485;-79
2021/01/20 12:59:33;;;;;;;4.60;4.13;;;9.40;98.30;;;;;;5123875;23;20438;-79
2021/01/20 13:01:36;;;;;;;4.90;3.60;;;9.40;98.30;;;;;;5124293;23;20454;-79
2021/01/20 13:03:38;;;;;;;4.37;3.70;;;9.40;98.30;;;;;;5124057;23;20754;-79
2021/01/20 13:05:41;;;;;;;5.50;3.50;;;9.40;98.30;;;;;;5124171;23;20944;-79
2021/01/20 13:07:43;;;;;;;4.00;3.60;;;9.40;98.30;;;;;;5123814;23;20449;-79
2021/01/20 13:09:45;;;;;;;5.37;4.40;;;9.40;98.30;;;;;;5123775;23;20928;-79
2021/01/20 13:11:47;;;;;;;4.10;3.63;;;9.40;98.30;;;;;;5123759;23;20544;-79
2021/01/20 13:13:49;;;;;;;5.90;3.67;;;9.40;98.30;;;;;;5123859;23;20446;-79
2021/01/20 13:15:52;;;;;;;4.27;3.47;;;9.40;98.30;;;;;;5124011;23;20450;-79
2021/01/20 13:17:55;;;;;;;5.80;4.20;;;9.40;98.30;;;;;;5123901;23;20481;-79
2021/01/20 13:19:57;;;;;;;4.43;4.03;;;9.40;98.30;;;;;;5123903;23;20454;-79
2021/01/20 13:22:00;;;;;;;4.63;3.90;;;9.50;98.30;;;;;;5123876;23;20453;-79
2021/01/20 13:24:03;;;;;;;5.00;4.60;;;9.40;98.30;;;;;;5123792;23;20982;-79
2021/01/20 13:26:05;;;;;;;3.70;3.40;;;9.50;98.30;;;;;;5123925;23;20445;-79
2021/01/20 13:28:07;;;;;;;4.63;3.27;;;9.50;98.30;;;;;;5123565;23;20536;-79
2021/01/20 13:30:10;;;;;;;4.53;3.43;;;9.50;98.30;;;;;;5123428;23;20492;-79
2021/01/20 13:32:12;;;;;;;4.40;3.40;;;9.50;98.30;;;;;;5123573;23;20532;-79
2021/01/20 13:34:14;;;;;;;9.17;6.20;;;9.60;98.30;;;;;;5123871;23;20446;-80
2021/01/20 13:36:16;;;;;;;3.87;3.33;;;9.60;98.30;;;;;;5123617;23;20481;-80
2021/01/20 13:38:20;;;;;;;4.97;3.43;;;9.50;98.30;;;;;;5123522;23;20450;-81
2021/01/20 13:40:22;;;;;;;4.43;3.20;;;9.50;98.30;;;;;;5123556;23;20457;-82
2021/01/20 13:42:24;;;;;;;5.73;3.30;;;9.60;98.30;;;;;;5123753;23;20476;-81
2021/01/20 13:44:26;;;;;;;4.40;3.80;;;9.60;98.30;;;;;;5124639;23;20457;-81
2021/01/20 13:46:28;;;;;;;5.00;3.60;;;9.60;98.30;;;;;;5123722;23;20456;-81
2021/01/20 13:48:31;;;;;;;3.83;3.30;;;9.60;98.30;;;;;;5123799;23;20477;-81
2021/01/20 13:50:34;;;;;;;3.63;3.30;;;9.60;98.30;;;;;;5123509;23;20449;-81
2021/01/20 13:52:39;;;;;;;4.17;3.70;;;9.60;98.30;;;;;;5123997;23;20449;-81
2021/01/20 13:54:42;;;;;;;4.23;3.83;;;9.60;98.30;;;;;;5123794;23;20449;-81
2021/01/20 13:56:44;;;;;;;4.87;3.77;;;9.60;98.30;;;;;;5123154;23;20484;-81
2021/01/20 13:58:54;;;;;;;3.97;3.67;;;9.70;98.30;;;;;;5115949;23;20824;-81
2021/01/20 14:00:57;;;;;;;4.37;3.10;;;9.70;98.30;;;;;;5124035;23;20449;-81
2021/01/20 14:02:59;;;;;;;3.47;3.17;;;9.70;98.30;;;;;;5123421;23;20507;-80
2021/01/20 14:05:02;;;;;;;4.00;3.20;;;9.80;98.30;;;;;;5123853;23;21015;-80
2021/01/20 14:07:04;;;;;;;3.97;3.57;;;9.90;98.30;;;;;;5123743;23;20528;-81
2021/01/20 14:09:06;;;;;;;4.07;3.17;;;9.90;98.30;;;;;;5114713;23;20493;-79
2021/01/20 14:11:09;;;;;;;4.00;3.60;;;9.90;98.30;;;;;;5123557;23;20553;-79
2021/01/20 14:13:11;;;;;;;4.47;3.87;;;9.90;98.30;;;;;;5123748;23;20871;-80
2021/01/20 14:15:14;;;;;;;4.13;3.20;;;10.00;98.30;;;;;;5123464;23;20449;-79
2021/01/20 14:17:15;;;;;;;4.03;3.63;;;10.00;98.30;;;;;;5123137;23;20472;-79
2021/01/20 14:19:18;;;;;;;5.03;3.20;;;10.10;98.30;;;;;;5123002;23;20457;-79
2021/01/20 14:21:24;;;;;;;3.83;3.20;;;10.10;98.30;;;;;;5123806;23;21220;-79
2021/01/20 14:23:27;;;;;;;4.87;3.50;;;10.10;98.30;;;;;;5123608;23;20937;-79
2021/01/20 14:25:29;;;;;;;3.93;3.53;;;10.20;98.30;;;;;;5123739;23;20513;-79
2021/01/20 14:27:34;;;;;;;4.97;3.30;;;10.20;98.30;;;;;;5123069;23;20525;-79
2021/01/20 14:29:36;;;;;;;4.10;3.37;;;10.20;98.30;;;;;;5115195;23;20504;-79
2021/01/20 14:31:41;;;;;;;4.00;3.30;;;10.20;98.30;;;;;;5123921;23;20449;-79
2021/01/20 14:33:43;;;;;;;3.47;3.17;;;10.20;98.30;;;;;;5124068;23;20442;-79
2021/01/20 14:35:46;;;;;;;3.80;3.43;;;10.20;98.30;;;;;;5123375;23;20453;-79
2021/01/20 14:37:48;;;;;;;3.63;3.23;;;10.20;98.30;;;;;;5123147;23;20457;-79
2021/01/20 14:39:50;;;;;;;3.23;2.93;;;10.20;98.30;;;;;;5123102;23;20460;-79
2021/01/20 14:41:56;;;;;;;7.90;3.60;;;10.20;98.30;;;;;;5123338;23;20537;-79
2021/01/20 14:44:00;;;;;;;3.80;2.80;;;10.20;98.30;;;;;;5124027;23;20504;-79
2021/01/20 14:46:02;;;;;;;5.77;3.30;;;10.20;98.30;;;;;;5125109;23;20496;-79
2021/01/20 14:48:07;;;;;;;3.13;2.73;;;10.20;98.30;;;;;;5125011;23;20488;-78
2021/01/20 14:50:10;;;;;;;4.03;3.00;;;10.20;98.30;;;;;;5125120;23;21112;-79
2021/01/20 14:52:13;;;;;;;3.70;3.00;;;10.20;98.30;;;;;;5125134;23;20453;-79
2021/01/20 14:54:15;;;;;;;4.10;3.20;;;10.20;98.30;;;;;;5124843;23;20548;-79
2021/01/20 14:56:17;;;;;;;6.33;3.80;;;10.20;98.30;;;;;;5125226;23;20453;-80
2021/01/20 14:58:19;;;;;;;7.90;4.47;;;10.30;98.30;;;;;;5124875;23;20535;-78
2021/01/20 15:00:23;;;;;;;4.63;3.40;;;10.30;98.30;;;;;;5125270;23;20488;-81
2021/01/20 15:02:25;;;;;;;6.40;3.43;;;10.30;98.30;;;;;;5126190;23;20449;-81
2021/01/20 15:04:27;;;;;;;5.80;3.20;;;10.30;98.30;;;;;;5125761;23;20457;-82
2021/01/20 15:06:29;;;;;;;4.37;3.53;;;10.30;98.30;;;;;;5125735;23;20533;-82
2021/01/20 15:08:32;;;;;;;7.20;3.57;;;10.30;98.30;;;;;;5125988;23;20453;-82
2021/01/20 15:10:34;;;;;;;5.17;3.47;;;10.30;98.30;;;;;;5125486;23;20453;-81
2021/01/20 15:12:36;;;;;;;4.03;3.30;;;10.40;98.30;;;;;;5125835;23;20469;-81
2021/01/20 15:14:38;;;;;;;3.40;3.10;;;10.30;98.30;;;;;;5125370;23;20540;-81
2021/01/20 15:16:41;;;;;;;4.30;3.53;;;10.40;98.30;;;;;;5124862;23;20508;-79
2021/01/20 15:18:43;;;;;;;5.60;4.43;;;10.40;98.30;;;;;;5124590;23;20453;-81
2021/01/20 15:20:53;;;;;;;3.77;3.10;;;10.40;98.30;;;;;;5124670;23;20453;-79
2021/01/20 15:22:55;;;;;;;4.27;3.50;;;10.40;98.30;;;;;;5125215;23;20488;-80
2021/01/20 15:24:57;;;;;;;6.17;3.40;;;10.40;98.30;;;;;;5116796;23;20755;-80
2021/01/20 15:26:59;;;;;;;4.40;3.07;;;10.40;98.30;;;;;;5124329;23;20996;-80
2021/01/20 15:29:01;;;;;;;4.23;3.30;;;10.40;98.30;;;;;;5124170;23;20449;-82
2021/01/20 15:31:04;;;;;;;7.17;4.17;;;10.30;98.30;;;;;;5124879;23;20465;-81
2021/01/20 15:33:07;;;;;;;4.80;4.03;;;10.40;98.30;;;;;;5117352;23;20599;-80
2021/01/20 15:35:09;;;;;;;3.93;3.50;;;10.40;98.30;;;;;;5125698;23;20507;-80
2021/01/20 15:37:12;;;;;;;4.67;3.63;;;10.30;98.30;;;;;;5125833;23;20476;-80
2021/01/20 15:39:14;;;;;;;7.17;3.83;;;10.40;98.30;;;;;;5125084;23;20504;-80
2021/01/20 15:41:16;;;;;;;5.03;3.57;;;10.30;98.30;;;;;;5117172;23;20454;-80
2021/01/20 15:43:19;;;;;;;3.73;2.80;;;10.30;98.30;;;;;;5125116;23;20453;-79
2021/01/20 15:45:21;;;;;;;3.67;3.33;;;10.30;98.30;;;;;;5125683;23;20504;-80
2021/01/20 15:47:23;;;;;;;5.87;3.63;;;10.30;98.30;;;;;;5124911;23;20553;-80
2021/01/20 15:49:26;;;;;;;6.57;4.70;;;10.30;98.30;;;;;;5125112;23;20449;-80
2021/01/20 15:51:36;;;;;;;3.80;3.30;;;10.30;98.30;;;;;;5125214;23;20443;-80
2021/01/20 15:53:38;;;;;;;3.53;3.20;;;10.30;98.30;;;;;;5124660;23;20450;-80
2021/01/20 15:55:40;;;;;;;4.80;3.20;;;10.30;98.30;;;;;;5125022;23;20456;-82
2021/01/20 15:57:42;;;;;;;4.20;3.23;;;10.30;98.30;;;;;;5124061;23;20501;-81
2021/01/20 15:59:44;;;;;;;5.57;3.10;;;10.30;98.30;;;;;;5116554;23;20454;-82
2021/01/20 16:02:06;;;;;;;4.43;3.27;;;10.30;98.30;;;;;;5116388;23;20746;-82
2021/01/20 16:04:18;;;;;;;4.17;3.27;;;10.30;98.30;;;;;;5124046;23;20481;-82
2021/01/20 16:06:22;;;;;;;3.27;2.97;;;10.30;98.30;;;;;;5123946;23;20489;-82
2021/01/20 16:08:24;;;;;;;4.70;3.40;;;10.40;98.30;;;;;;5124575;23;20442;-82
2021/01/20 16:10:26;;;;;;;3.70;3.20;;;10.30;98.30;;;;;;5115859;23;20537;-82
2021/01/20 16:12:30;;;;;;;4.10;3.20;;;10.30;98.30;;;;;;5124567;23;20485;-82
2021/01/20 16:14:34;;;;;;;4.60;3.10;;;10.30;98.30;;;;;;5124603;23;20449;-81
2021/01/20 16:16:42;;;;;;;7.00;3.40;;;10.30;98.30;;;;;;5124827;23;20521;-82
2021/01/20 16:18:44;;;;;;;3.63;3.27;;;10.30;98.30;;;;;;5117356;23;20513;-82
2021/01/20 16:20:46;;;;;;;3.73;3.20;;;10.40;98.30;;;;;;5124909;23;20460;-82
2021/01/20 16:22:52;;;;;;;7.40;3.73;;;10.40;98.30;;;;;;5125475;23;21020;-82
2021/01/20 16:24:54;;;;;;;4.73;3.10;;;10.30;98.30;;;;;;5125487;23;20519;-81
2021/01/20 16:26:56;;;;;;;3.97;2.90;;;10.30;98.30;;;;;;5124886;23;20446;-82
2021/01/20 16:28:58;;;;;;;5.77;3.27;;;10.30;98.30;;;;;;5125174;23;20468;-82
2021/01/20 16:31:00;;;;;;;4.87;3.30;;;10.40;98.30;;;;;;5125200;23;20469;-82
2021/01/20 16:33:02;;;;;;;3.63;3.30;;;10.30;98.30;;;;;;5117176;23;20489;-82
2021/01/20 16:35:06;;;;;;;4.70;4.03;;;10.30;98.30;;;;;;5125650;23;20512;-82
2021/01/20 16:37:08;;;;;;;5.90;3.47;;;10.30;98.30;;;;;;5124006;23;20524;-82
2021/01/20 16:39:11;;;;;;;4.93;3.70;;;10.30;98.30;;;;;;5124367;23;20529;-81
2021/01/20 16:41:15;;;;;;;4.97;3.57;;;10.30;98.30;;;;;;5124057;23;21160;-81
2021/01/20 16:43:20;;;;;;;5.43;3.43;;;10.30;98.30;;;;;;5123721;23;20470;-82
2021/01/20 16:45:23;;;;;;;5.50;4.40;;;10.30;98.30;;;;;;5124211;23;21028;-82
2021/01/20 16:47:25;;;;;;;4.20;3.80;;;10.20;98.30;;;;;;5124855;23;20449;-82
2021/01/20 16:49:29;;;;;;;5.20;3.93;;;10.20;98.30;;;;;;5124321;23;20764;-82
2021/01/20 16:51:31;;;;;;;5.30;3.53;;;10.20;98.30;;;;;;5123942;23;20453;-82
2021/01/20 16:53:34;;;;;;;3.90;3.50;;;10.20;98.30;;;;;;5124362;23;20781;-81
2021/01/20 16:55:37;;;;;;;4.63;3.97;;;10.10;98.30;;;;;;5124406;23;20501;-82
2021/01/20 23:08:56;;;;;;;5.50;4.10;;;8.40;98.30;;;;;;5113234;23;20525;-82
2021/01/20 23:11:24;;;;;;;5.10;4.13;;;8.50;98.30;;;;;;5116462;23;20435;-82
2021/01/20 23:13:31;;;;;;;6.77;4.07;;;8.50;98.30;;;;;;5100373;23;20446;-83
2021/01/20 23:19:04;;;;;;;4.70;4.20;;;8.40;98.30;;;;;;5070170;23;20497;-82
2021/01/20 23:21:50;;;;;;;5.90;4.33;;;8.30;98.30;;;;;;5089252;23;20450;-82
2021/01/20 23:26:56;;;;;;;6.00;4.13;;;8.20;98.30;;;;;;5089083;23;20542;-82
2021/01/20 23:32:34;;;;;;;6.00;4.50;;;8.20;98.30;;;;;;5086274;23;20442;-82
